createdAt,value
2022-08-05T00:00:23.856Z,2.30
2022-08-05T00:01:28.457Z,4.10
2022-08-05T00:02:23.895Z,6.00
2022-08-05T00:03:23.850Z,3.90
2022-08-05T00:04:23.840Z,4.80
2022-08-05T00:06:02.523Z,1.50
2022-08-05T00:06:27.910Z,2.80
2022-08-05T00:07:58.799Z,3.10
2022-08-05T00:08:34.555Z,2.90
2022-08-05T00:09:23.844Z,3.40
2022-08-05T00:10:27.112Z,2.80
2022-08-05T00:11:30.386Z,4.30
2022-08-05T00:12:23.894Z,2.50
2022-08-05T00:13:39.591Z,3.90
2022-08-05T00:14:27.644Z,3.90
2022-08-05T00:15:55.698Z,2.80
2022-08-05T00:16:36.554Z,3.80
2022-08-05T00:17:23.855Z,4.60
2022-08-05T00:18:23.864Z,3.50
2022-08-05T00:19:25.091Z,2.70
2022-08-05T00:20:23.864Z,3.10
2022-08-05T00:21:23.854Z,4.10
2022-08-05T00:22:23.860Z,4.40
2022-08-05T00:23:30.849Z,2.60
2022-08-05T00:24:24.802Z,4.60
2022-08-05T00:25:23.861Z,2.60
2022-08-05T00:26:23.865Z,2.70
2022-08-05T00:27:35.616Z,9.00
2022-08-05T00:28:29.763Z,4.30
2022-08-05T00:29:25.201Z,2.50
2022-08-05T00:30:29.280Z,2.80
2022-08-05T00:31:53.111Z,3.40
2022-08-05T00:32:25.845Z,3.40
2022-08-05T00:34:53.547Z,4.20
2022-08-05T00:34:55.636Z,3.70
2022-08-05T00:35:23.877Z,5.30
2022-08-05T00:37:13.194Z,3.90
2022-08-05T00:37:24.145Z,4.80
2022-08-05T00:38:28.934Z,7.00
2022-08-05T00:39:24.547Z,3.00
2022-08-05T00:40:26.639Z,2.80
2022-08-05T00:41:23.878Z,2.80
2022-08-05T00:42:31.647Z,4.00
2022-08-05T00:43:23.883Z,3.30
2022-08-05T00:44:30.656Z,8.60
2022-08-05T00:45:24.968Z,3.60
2022-08-05T00:46:42.652Z,4.70
2022-08-05T00:47:23.891Z,8.20
2022-08-05T00:48:31.312Z,7.50
2022-08-05T00:49:23.890Z,4.70
2022-08-05T00:50:25.379Z,3.60
2022-08-05T00:51:51.570Z,3.50
2022-08-05T00:52:28.795Z,7.00
2022-08-05T00:54:00.739Z,3.00
2022-08-05T00:54:23.894Z,4.30
2022-08-05T00:55:34.003Z,2.40
2022-08-05T00:56:23.908Z,3.90
2022-08-05T00:57:25.172Z,3.50
2022-08-05T00:58:27.343Z,4.40
2022-08-05T00:59:23.894Z,2.30
2022-08-05T01:00:25.860Z,5.90
2022-08-05T01:01:24.774Z,5.50
2022-08-05T01:02:24.313Z,2.50
2022-08-05T01:03:23.902Z,4.20
2022-08-05T01:04:26.823Z,6.10
2022-08-05T01:05:23.908Z,5.00
2022-08-05T01:06:28.908Z,6.40
2022-08-05T01:07:31.750Z,7.80
2022-08-05T01:08:43.408Z,3.90
2022-08-05T01:09:23.906Z,5.30
2022-08-05T01:10:25.808Z,4.00
2022-08-05T01:11:33.314Z,4.70
2022-08-05T01:12:23.917Z,4.40
2022-08-05T01:13:27.429Z,7.20
2022-08-05T01:14:27.205Z,3.00
2022-08-05T01:15:36.413Z,3.60
2022-08-05T01:16:26.409Z,3.90
2022-08-05T01:17:24.185Z,4.00
2022-08-05T01:18:23.916Z,2.20
2022-08-05T01:19:36.804Z,3.10
2022-08-05T01:20:23.918Z,2.60
2022-08-05T01:21:23.924Z,3.00
2022-08-05T01:22:27.769Z,3.50
2022-08-05T01:23:23.931Z,3.40
2022-08-05T01:24:23.935Z,4.10
2022-08-05T01:25:23.932Z,2.40
2022-08-05T01:26:26.317Z,4.30
2022-08-05T01:27:23.925Z,3.20
2022-08-05T01:28:24.013Z,5.90
2022-08-05T01:29:23.939Z,2.60
2022-08-05T01:30:33.620Z,4.20
2022-08-05T01:31:23.930Z,2.70
2022-08-05T01:32:23.941Z,2.60
2022-08-05T01:33:25.466Z,2.60
2022-08-05T01:34:26.694Z,4.00
2022-08-05T01:35:50.756Z,2.90
2022-08-05T01:36:28.246Z,2.10
2022-08-05T01:37:25.016Z,4.00
2022-08-05T01:38:26.993Z,2.30
2022-08-05T01:39:45.693Z,2.50
2022-08-05T01:40:27.978Z,3.40
2022-08-05T01:41:25.756Z,4.20
2022-08-05T01:42:23.950Z,2.20
2022-08-05T01:43:24.168Z,3.10
2022-08-05T01:44:24.735Z,5.30
2022-08-05T01:45:23.950Z,2.80
2022-08-05T01:46:42.646Z,3.50
2022-08-05T01:47:24.256Z,3.00
2022-08-05T01:48:23.956Z,2.60
2022-08-05T01:49:24.945Z,4.80
2022-08-05T01:50:28.606Z,2.80
2022-08-05T01:51:23.963Z,4.30
2022-08-05T01:52:23.967Z,5.60
2022-08-05T01:53:54.837Z,3.10
2022-08-05T01:54:27.163Z,4.40
2022-08-05T01:55:23.962Z,7.50
2022-08-05T01:58:12.973Z,2.40
2022-08-05T01:58:13.830Z,2.40
2022-08-05T01:58:40.839Z,3.50
2022-08-05T01:59:23.973Z,4.70
2022-08-05T02:00:30.755Z,2.90
2022-08-05T02:01:25.256Z,3.90
2022-08-05T02:02:26.022Z,3.20
2022-08-05T02:03:24.318Z,2.00
2022-08-05T02:04:23.972Z,3.60
2022-08-05T02:05:23.979Z,2.70
2022-08-05T02:06:37.203Z,2.30
2022-08-05T02:07:24.368Z,4.10
2022-08-05T02:08:30.941Z,5.60
2022-08-05T02:09:23.975Z,9.00
2022-08-05T02:10:28.355Z,2.90
2022-08-05T02:11:24.114Z,4.20
2022-08-05T02:12:25.280Z,1.60
2022-08-05T02:13:23.981Z,3.00
2022-08-05T02:14:23.987Z,3.50
2022-08-05T02:15:24.001Z,8.00
2022-08-05T02:16:23.984Z,5.40
2022-08-05T02:18:28.766Z,2.30
2022-08-05T02:18:32.235Z,2.00
2022-08-05T02:19:23.983Z,2.10
2022-08-05T02:20:23.989Z,4.10
2022-08-05T02:21:23.987Z,3.40
2022-08-05T02:22:26.700Z,3.70
2022-08-05T02:23:23.980Z,2.90
2022-08-05T02:24:23.987Z,3.20
2022-08-05T02:25:23.995Z,3.30
2022-08-05T02:26:23.999Z,3.40
2022-08-05T02:27:29.975Z,3.50
2022-08-05T02:28:29.258Z,4.50
2022-08-05T02:29:25.995Z,6.20
2022-08-05T02:30:24.001Z,4.20
2022-08-05T02:31:23.984Z,6.10
2022-08-05T02:32:29.209Z,3.40
2022-08-05T02:33:35.881Z,4.10
2022-08-05T02:34:23.991Z,3.90
2022-08-05T02:35:27.937Z,4.30
2022-08-05T02:36:23.997Z,5.60
2022-08-05T02:37:24.243Z,3.10
2022-08-05T02:38:26.975Z,4.80
2022-08-05T02:39:24.114Z,3.80
2022-08-05T02:40:24.321Z,4.40
2022-08-05T02:41:28.651Z,3.80
2022-08-05T02:42:27.710Z,7.20
2022-08-05T02:43:24.004Z,5.60
2022-08-05T02:44:23.994Z,5.50
2022-08-05T02:45:25.342Z,4.60
2022-08-05T02:46:27.450Z,3.30
2022-08-05T02:47:24.429Z,6.10
2022-08-05T02:48:29.569Z,2.80
2022-08-05T02:49:23.997Z,4.30
2022-08-05T02:50:24.000Z,4.00
2022-08-05T02:51:42.388Z,6.20
2022-08-05T02:52:29.519Z,4.70
2022-08-05T02:53:24.012Z,3.90
2022-08-05T02:54:36.127Z,5.40
2022-08-05T02:55:52.219Z,4.20
2022-08-05T02:56:24.012Z,9.00
2022-08-05T02:58:09.762Z,4.70
2022-08-05T02:58:26.856Z,5.30
2022-08-05T02:59:27.124Z,6.70
2022-08-05T03:00:25.426Z,4.60
2022-08-05T03:01:24.083Z,7.00
2022-08-05T03:02:24.014Z,4.30
2022-08-05T03:03:24.003Z,5.80
2022-08-05T03:04:24.005Z,4.60
2022-08-05T03:06:56.095Z,5.80
2022-08-05T03:06:57.088Z,7.40
2022-08-05T03:07:40.716Z,6.70
2022-08-05T03:08:29.516Z,4.30
2022-08-05T03:09:27.095Z,9.00
2022-08-05T03:10:24.893Z,3.10
2022-08-05T03:11:55.382Z,4.60
2022-08-05T03:12:24.010Z,3.80
2022-08-05T03:13:27.591Z,6.40
2022-08-05T03:14:24.004Z,4.40
2022-08-05T03:15:24.481Z,5.40
2022-08-05T03:16:24.005Z,5.90
2022-08-05T03:17:24.224Z,5.60
2022-08-05T03:18:24.655Z,4.00
2022-08-05T03:19:34.096Z,6.80
2022-08-05T03:20:24.525Z,6.40
2022-08-05T03:21:24.098Z,4.40
2022-08-05T03:22:32.499Z,6.60
2022-08-05T03:23:24.253Z,3.90
2022-08-05T03:24:29.982Z,4.50
2022-08-05T03:25:33.904Z,9.50
2022-08-05T03:26:30.409Z,5.60
2022-08-05T03:27:29.526Z,5.80
2022-08-05T03:28:24.015Z,3.90
2022-08-05T03:29:24.018Z,5.60
2022-08-05T03:30:30.306Z,5.20
2022-08-05T03:31:55.890Z,5.40
2022-08-05T03:32:30.695Z,3.90
2022-08-05T03:33:24.010Z,3.40
2022-08-05T03:34:24.435Z,3.20
2022-08-05T03:35:23.997Z,9.00
2022-08-05T03:36:29.796Z,4.10
2022-08-05T03:37:24.204Z,4.30
2022-08-05T03:38:32.687Z,5.30
2022-08-05T03:39:27.128Z,3.60
2022-08-05T03:40:31.090Z,4.40
2022-08-05T03:41:23.997Z,3.70
2022-08-05T03:42:24.008Z,4.40
2022-08-05T03:44:08.123Z,6.80
2022-08-05T03:44:24.011Z,5.80
2022-08-05T03:45:24.006Z,4.50
2022-08-05T03:46:24.015Z,12.10
2022-08-05T03:47:24.521Z,3.80
2022-08-05T03:48:24.024Z,4.00
2022-08-05T03:49:24.127Z,5.10
2022-08-05T03:50:24.016Z,4.40
2022-08-05T03:52:38.144Z,6.90
2022-08-05T03:52:38.329Z,4.60
2022-08-05T03:55:52.963Z,5.80
2022-08-05T03:55:53.611Z,4.30
2022-08-05T03:56:04.837Z,3.80
2022-08-05T03:56:30.562Z,4.10
2022-08-05T03:57:29.098Z,4.50
2022-08-05T03:58:28.861Z,4.30
2022-08-05T03:59:24.614Z,4.40
2022-08-05T04:00:24.106Z,3.40
2022-08-05T04:01:24.077Z,3.60
2022-08-05T04:02:38.218Z,6.60
2022-08-05T04:03:28.572Z,5.20
2022-08-05T04:04:26.533Z,4.70
2022-08-05T04:05:24.023Z,5.50
2022-08-05T04:06:24.012Z,6.60
2022-08-05T04:07:24.929Z,5.10
2022-08-05T04:08:34.640Z,7.10
2022-08-05T04:09:26.427Z,5.00
2022-08-05T04:10:24.025Z,4.10
2022-08-05T04:11:24.015Z,8.50
2022-08-05T04:12:24.847Z,5.20
2022-08-05T04:13:24.027Z,6.90
2022-08-05T04:14:30.623Z,10.10
2022-08-05T04:15:24.427Z,5.50
2022-08-05T04:16:25.410Z,6.80
2022-08-05T04:17:24.256Z,4.20
2022-08-05T04:18:25.493Z,6.30
2022-08-05T04:19:24.028Z,6.60
2022-08-05T04:20:24.041Z,6.20
2022-08-05T04:22:08.433Z,5.80
2022-08-05T04:22:24.024Z,6.50
2022-08-05T04:24:05.618Z,6.10
2022-08-05T04:24:24.034Z,10.00
2022-08-05T04:25:38.512Z,7.60
2022-08-05T04:26:24.036Z,6.40
2022-08-05T04:27:33.350Z,6.70
2022-08-05T04:28:30.702Z,7.30
2022-08-05T04:29:24.038Z,5.80
2022-08-05T04:30:24.049Z,11.90
2022-08-05T04:31:24.025Z,6.70
2022-08-05T04:32:31.152Z,7.10
2022-08-05T04:34:18.480Z,7.00
2022-08-05T04:34:33.351Z,8.10
2022-08-05T04:35:24.028Z,9.50
2022-08-05T04:36:44.764Z,7.30
2022-08-05T04:38:00.909Z,6.50
2022-08-05T04:38:39.147Z,6.30
2022-08-05T04:39:24.107Z,7.00
2022-08-05T04:40:24.030Z,7.30
2022-08-05T04:41:34.148Z,4.50
2022-08-05T04:42:25.452Z,9.20
2022-08-05T04:43:24.035Z,5.00
2022-08-05T04:44:29.598Z,7.80
2022-08-05T04:45:47.838Z,8.70
2022-08-05T04:46:28.281Z,10.10
2022-08-05T04:47:24.242Z,10.70
2022-08-05T04:48:27.978Z,6.60
2022-08-05T04:49:24.648Z,5.90
2022-08-05T04:50:34.313Z,4.60
2022-08-05T04:51:24.034Z,6.20
2022-08-05T04:52:24.048Z,6.00
2022-08-05T04:53:24.041Z,9.70
2022-08-05T04:54:24.046Z,8.80
2022-08-05T04:56:14.605Z,7.10
2022-08-05T04:56:35.051Z,12.80
2022-08-05T04:57:28.816Z,5.90
2022-08-05T04:58:24.042Z,6.70
2022-08-05T04:59:36.636Z,8.60
2022-08-05T05:00:24.040Z,9.40
2022-08-05T05:02:05.532Z,7.20
2022-08-05T05:02:37.254Z,6.50
2022-08-05T05:03:24.039Z,7.20
2022-08-05T05:04:24.048Z,7.40
2022-08-05T05:05:28.056Z,8.00
2022-08-05T05:06:39.418Z,8.60
2022-08-05T05:07:29.788Z,6.70
2022-08-05T05:08:30.294Z,9.30
2022-08-05T05:09:24.056Z,10.90
2022-08-05T05:10:24.049Z,7.40
2022-08-05T05:11:24.055Z,11.50
2022-08-05T05:12:24.094Z,6.50
2022-08-05T05:13:24.080Z,9.60
2022-08-05T05:14:28.179Z,7.90
2022-08-05T05:15:56.914Z,7.60
2022-08-05T05:16:24.061Z,8.50
2022-08-05T05:17:55.371Z,9.20
2022-08-05T05:18:28.317Z,8.70
2022-08-05T05:19:26.670Z,11.90
2022-08-05T05:20:28.699Z,8.80
2022-08-05T05:21:24.055Z,5.60
2022-08-05T05:22:26.436Z,6.40
2022-08-05T05:23:26.686Z,5.50
2022-08-05T05:24:57.841Z,6.00
2022-08-05T05:25:32.951Z,4.60
2022-08-05T05:26:28.043Z,4.60
2022-08-05T05:27:24.312Z,4.50
2022-08-05T05:28:24.054Z,5.70
2022-08-05T05:29:24.059Z,5.50
2022-08-05T05:30:30.927Z,5.80
2022-08-05T05:31:24.062Z,3.70
2022-08-05T05:32:24.062Z,4.00
2022-08-05T05:33:24.085Z,6.60
2022-08-05T05:34:24.265Z,4.30
2022-08-05T05:35:24.061Z,4.60
2022-08-05T05:36:24.075Z,3.40
2022-08-05T05:37:29.289Z,5.00
2022-08-05T05:38:27.425Z,5.10
2022-08-05T05:39:24.128Z,9.00
2022-08-05T05:40:26.116Z,8.40
2022-08-05T05:41:24.082Z,4.60
2022-08-05T05:42:24.087Z,4.70
2022-08-05T05:43:56.449Z,4.90
2022-08-05T05:44:37.533Z,3.60
2022-08-05T05:45:24.610Z,3.50
2022-08-05T05:46:24.068Z,3.60
2022-08-05T05:47:30.269Z,3.80
2022-08-05T05:48:27.492Z,6.70
2022-08-05T05:49:24.076Z,3.40
2022-08-05T05:50:24.081Z,5.00
2022-08-05T05:51:24.068Z,5.20
2022-08-05T05:52:28.773Z,4.40
2022-08-05T05:53:24.083Z,8.10
2022-08-05T05:54:50.207Z,6.10
2022-08-05T05:55:24.086Z,6.30
2022-08-05T05:56:26.206Z,3.90
2022-08-05T05:57:24.313Z,4.50
2022-08-05T05:58:31.568Z,4.50
2022-08-05T05:59:24.076Z,7.60
2022-08-05T06:00:31.516Z,4.50
2022-08-05T06:01:24.082Z,6.30
2022-08-05T06:02:32.675Z,5.00
2022-08-05T06:03:40.225Z,6.20
2022-08-05T06:04:24.193Z,6.50
2022-08-05T06:05:24.137Z,10.10
2022-08-05T06:06:24.097Z,3.70
2022-08-05T06:07:24.419Z,5.90
2022-08-05T06:08:31.676Z,4.20
2022-08-05T06:09:27.427Z,4.80
2022-08-05T06:10:24.111Z,3.80
2022-08-05T06:11:24.096Z,5.80
2022-08-05T06:12:24.102Z,5.80
2022-08-05T06:13:24.101Z,4.30
2022-08-05T06:14:24.099Z,7.60
2022-08-05T06:15:24.495Z,6.00
2022-08-05T06:16:30.437Z,15.40
2022-08-05T06:17:52.415Z,15.80
2022-08-05T06:18:30.979Z,19.00
2022-08-05T06:19:33.982Z,14.20
2022-08-05T06:20:24.115Z,21.00
2022-08-05T06:21:24.132Z,15.50
2022-08-05T06:22:24.119Z,15.80
2022-08-05T06:23:24.125Z,15.50
2022-08-05T06:24:25.911Z,21.00
2022-08-05T06:25:59.122Z,24.00
2022-08-05T06:26:25.155Z,25.40
2022-08-05T06:28:11.848Z,21.80
2022-08-05T06:28:24.328Z,24.10
2022-08-05T06:29:46.437Z,28.90
2022-08-05T06:30:25.196Z,20.00
2022-08-05T06:31:32.060Z,22.30
2022-08-05T06:32:28.678Z,21.50
2022-08-05T06:34:05.804Z,24.20
2022-08-05T06:34:24.123Z,23.90
2022-08-05T06:36:07.777Z,24.30
2022-08-05T06:36:25.825Z,21.50
2022-08-05T06:37:56.273Z,21.40
2022-08-05T06:38:35.627Z,22.10
2022-08-05T06:39:26.876Z,26.20
2022-08-05T06:40:27.717Z,24.30
2022-08-05T06:41:24.123Z,24.10
2022-08-05T06:42:24.115Z,28.50
2022-08-05T06:43:58.027Z,28.60
2022-08-05T06:44:24.126Z,28.70
2022-08-05T06:45:44.967Z,22.60
2022-08-05T06:46:29.765Z,25.50
2022-08-05T06:48:11.971Z,25.30
2022-08-05T06:48:50.288Z,28.00
2022-08-05T06:50:01.512Z,28.20
2022-08-05T06:50:24.110Z,21.50
2022-08-05T06:51:29.585Z,29.10
2022-08-05T06:52:37.858Z,30.70
2022-08-05T06:53:28.466Z,27.10
2022-08-05T06:54:25.929Z,33.90
2022-08-05T06:55:24.107Z,29.60
2022-08-05T06:56:26.492Z,27.20
2022-08-05T06:58:02.677Z,26.00
2022-08-05T06:58:35.068Z,28.60
2022-08-05T06:59:24.112Z,23.30
2022-08-05T07:00:24.945Z,23.20
2022-08-05T07:01:24.134Z,24.20
2022-08-05T07:02:24.115Z,19.90
2022-08-05T07:03:27.981Z,29.90
2022-08-05T07:04:24.110Z,26.30
2022-08-05T07:05:31.900Z,25.10
2022-08-05T07:06:24.113Z,25.40
2022-08-05T07:07:35.397Z,29.10
2022-08-05T07:08:25.186Z,29.50
2022-08-05T07:09:24.957Z,24.40
2022-08-05T07:10:24.193Z,29.30
2022-08-05T07:11:25.506Z,34.10
2022-08-05T07:12:24.101Z,32.30
2022-08-05T07:13:58.515Z,31.60
2022-08-05T07:14:30.124Z,34.30
2022-08-05T07:15:34.352Z,24.60
2022-08-05T07:17:56.367Z,27.90
2022-08-05T07:18:07.013Z,28.60
2022-08-05T07:18:29.104Z,30.00
2022-08-05T07:20:05.736Z,27.90
2022-08-05T07:20:33.433Z,25.50
2022-08-05T07:21:25.755Z,28.20
2022-08-05T07:22:28.591Z,29.60
2022-08-05T07:23:26.396Z,30.60
2022-08-05T07:24:24.086Z,31.70
2022-08-05T07:25:56.179Z,28.30
2022-08-05T07:26:25.015Z,32.30
2022-08-05T07:27:27.775Z,26.30
2022-08-05T07:28:24.081Z,28.50
2022-08-05T07:29:25.529Z,23.40
2022-08-05T07:30:30.706Z,32.00
2022-08-05T07:31:40.846Z,23.10
2022-08-05T07:32:26.039Z,23.60
2022-08-05T07:33:37.074Z,27.20
2022-08-05T07:34:28.603Z,23.70
2022-08-05T07:35:55.986Z,28.50
2022-08-05T07:36:24.068Z,25.50
2022-08-05T07:37:24.355Z,24.70
2022-08-05T07:38:32.862Z,26.00
2022-08-05T07:39:24.391Z,28.70
2022-08-05T07:40:31.757Z,28.30
2022-08-05T07:42:08.235Z,24.20
2022-08-05T07:42:33.472Z,28.70
2022-08-05T07:43:24.072Z,26.20
2022-08-05T07:44:24.060Z,29.00
2022-08-05T07:45:31.182Z,26.70
2022-08-05T07:46:25.319Z,22.30
2022-08-05T07:47:25.840Z,25.20
2022-08-05T07:49:04.225Z,23.00
2022-08-05T07:49:24.068Z,28.90
2022-08-05T07:50:28.806Z,28.40
2022-08-05T07:51:36.949Z,28.20
2022-08-05T07:52:24.043Z,28.90
2022-08-05T07:53:26.828Z,29.00
2022-08-05T07:54:26.594Z,23.00
2022-08-05T07:56:04.664Z,25.90
2022-08-05T07:57:00.286Z,27.00
2022-08-05T07:57:51.346Z,30.20
2022-08-05T07:58:54.976Z,26.30
2022-08-05T07:59:38.312Z,28.50
2022-08-05T08:00:24.033Z,27.70
2022-08-05T08:01:24.042Z,32.60
2022-08-05T08:02:26.554Z,29.90
2022-08-05T08:03:24.037Z,28.00
2022-08-05T08:04:34.430Z,25.70
2022-08-05T08:05:24.058Z,32.30
2022-08-05T08:06:24.038Z,27.80
2022-08-05T08:07:24.538Z,33.60
2022-08-05T08:08:24.041Z,33.40
2022-08-05T08:09:24.021Z,27.70
2022-08-05T08:10:24.037Z,27.00
2022-08-05T08:11:27.623Z,28.00
2022-08-05T08:12:33.540Z,25.60
2022-08-05T08:13:29.104Z,23.20
2022-08-05T08:14:24.011Z,24.90
2022-08-05T08:16:34.699Z,21.30
2022-08-05T08:16:35.791Z,26.90
2022-08-05T08:17:24.359Z,22.40
2022-08-05T08:18:24.376Z,28.60
2022-08-05T08:20:10.394Z,27.20
2022-08-05T08:21:00.186Z,24.10
2022-08-05T08:21:24.090Z,21.20
2022-08-05T08:22:24.046Z,25.40
2022-08-05T08:24:03.591Z,23.50
2022-08-05T08:24:24.045Z,21.50
2022-08-05T08:25:26.710Z,22.90
2022-08-05T08:26:29.624Z,24.40
2022-08-05T08:27:31.414Z,26.10
2022-08-05T08:28:36.909Z,23.70
2022-08-05T08:30:04.032Z,25.70
2022-08-05T08:30:29.475Z,25.10
2022-08-05T08:31:23.994Z,24.10
2022-08-05T08:32:27.814Z,25.30
2022-08-05T08:33:23.979Z,28.10
2022-08-05T08:34:30.196Z,28.30
2022-08-05T08:35:26.748Z,28.10
2022-08-05T08:36:38.235Z,22.50
2022-08-05T08:37:27.902Z,26.40
2022-08-05T08:38:36.166Z,24.70
2022-08-05T08:39:24.026Z,27.10
2022-08-05T08:40:23.987Z,27.50
2022-08-05T08:41:26.095Z,25.80
2022-08-05T08:42:34.150Z,25.50
2022-08-05T08:45:18.161Z,26.40
2022-08-05T08:45:18.194Z,23.40
2022-08-05T08:45:26.986Z,27.40
2022-08-05T08:46:23.964Z,22.90
2022-08-05T08:48:07.112Z,20.10
2022-08-05T08:48:41.668Z,24.70
2022-08-05T08:50:13.032Z,28.90
2022-08-05T08:50:52.873Z,25.00
2022-08-05T08:52:03.597Z,19.10
2022-08-05T08:52:24.100Z,20.00
2022-08-05T08:53:23.954Z,19.80
2022-08-05T08:54:27.230Z,23.70
2022-08-05T08:56:01.726Z,28.20
2022-08-05T08:56:27.127Z,25.20
2022-08-05T08:57:23.943Z,29.60
2022-08-05T08:58:37.086Z,22.10
2022-08-05T08:59:27.681Z,23.20
2022-08-05T09:00:23.938Z,25.70
2022-08-05T09:01:24.081Z,21.50
2022-08-05T09:02:26.718Z,24.30
2022-08-05T09:03:23.950Z,20.20
2022-08-05T09:04:23.937Z,18.10
2022-08-05T09:05:38.248Z,23.50
2022-08-05T09:06:28.267Z,23.00
2022-08-05T09:07:28.878Z,18.70
2022-08-05T09:08:26.640Z,19.20
2022-08-05T09:09:23.930Z,18.50
2022-08-05T09:10:27.658Z,19.70
2022-08-05T09:11:51.202Z,25.00
2022-08-05T09:12:27.792Z,19.90
2022-08-05T09:13:23.931Z,28.40
2022-08-05T09:14:57.714Z,21.40
2022-08-05T09:15:23.929Z,19.70
2022-08-05T09:16:26.777Z,20.00
2022-08-05T09:17:43.109Z,20.00
2022-08-05T09:18:23.939Z,20.90
2022-08-05T09:19:23.936Z,16.00
2022-08-05T09:20:37.635Z,19.00
2022-08-05T09:22:23.143Z,16.40
2022-08-05T09:22:31.598Z,18.70
2022-08-05T09:23:23.934Z,15.20
2022-08-05T09:24:24.174Z,15.40
2022-08-05T09:26:01.030Z,16.70
2022-08-05T09:26:23.932Z,14.40
2022-08-05T09:28:04.774Z,14.30
2022-08-05T09:28:23.945Z,12.80
2022-08-05T09:29:31.057Z,12.30
2022-08-05T09:30:23.923Z,13.00
2022-08-05T09:32:40.886Z,9.40
2022-08-05T09:32:43.005Z,10.90
2022-08-05T09:33:23.925Z,12.50
2022-08-05T09:34:26.086Z,9.20
2022-08-05T09:35:27.028Z,11.20
2022-08-05T09:36:27.934Z,12.10
2022-08-05T09:38:16.440Z,10.20
2022-08-05T09:38:27.550Z,10.20
2022-08-05T09:39:23.970Z,10.50
2022-08-05T09:40:23.986Z,7.60
2022-08-05T09:41:23.922Z,11.50
2022-08-05T09:42:28.416Z,9.30
2022-08-05T09:43:23.929Z,15.60
2022-08-05T09:44:23.930Z,9.30
2022-08-05T09:46:06.907Z,8.80
2022-08-05T09:46:27.540Z,8.40
2022-08-05T09:47:23.921Z,8.00
2022-08-05T09:48:23.919Z,7.90
2022-08-05T09:49:23.930Z,8.30
2022-08-05T09:50:37.577Z,10.40
2022-08-05T09:51:23.928Z,8.00
2022-08-05T09:52:24.196Z,8.00
2022-08-05T09:53:54.045Z,5.80
2022-08-05T09:54:29.333Z,8.10
2022-08-05T09:55:56.108Z,6.70
2022-08-05T09:56:23.924Z,5.30
2022-08-05T09:57:24.013Z,8.20
2022-08-05T09:58:23.925Z,6.60
2022-08-05T09:59:23.927Z,5.50
2022-08-05T10:00:23.923Z,9.60
2022-08-05T10:01:31.829Z,5.40
2022-08-05T10:02:24.160Z,6.50
2022-08-05T10:03:24.271Z,9.90
2022-08-05T10:04:29.274Z,10.00
2022-08-05T10:05:23.926Z,6.90
2022-08-05T10:06:23.921Z,4.70
2022-08-05T10:08:10.842Z,10.10
2022-08-05T10:08:36.137Z,5.50
2022-08-05T10:09:27.217Z,7.00
2022-08-05T10:10:28.156Z,8.90
2022-08-05T10:11:23.916Z,8.10
2022-08-05T10:12:33.659Z,5.80
2022-08-05T10:13:24.696Z,5.70
2022-08-05T10:14:23.915Z,4.70
2022-08-05T10:15:23.920Z,7.10
2022-08-05T10:16:23.928Z,5.80
2022-08-05T10:17:37.908Z,7.80
2022-08-05T10:18:23.925Z,5.70
2022-08-05T10:19:59.169Z,5.50
2022-08-05T10:20:23.920Z,6.10
2022-08-05T10:21:23.919Z,6.60
2022-08-05T10:22:29.748Z,8.40
2022-08-05T10:23:55.109Z,5.70
2022-08-05T10:24:24.990Z,7.10
2022-08-05T10:25:23.922Z,6.30
2022-08-05T10:26:24.212Z,4.70
2022-08-05T10:27:26.375Z,4.90
2022-08-05T10:28:29.277Z,5.30
2022-08-05T10:30:41.349Z,6.60
2022-08-05T10:31:20.239Z,6.20
2022-08-05T10:32:53.841Z,4.40
2022-08-05T10:33:00.860Z,4.40
2022-08-05T10:33:23.907Z,5.60
2022-08-05T10:34:25.634Z,4.70
2022-08-05T10:35:23.909Z,5.30
2022-08-05T10:36:25.972Z,5.80
2022-08-05T10:37:26.605Z,6.70
2022-08-05T10:38:23.912Z,5.70
2022-08-05T10:39:25.223Z,5.30
2022-08-05T10:40:28.315Z,6.60
2022-08-05T10:41:23.905Z,4.90
2022-08-05T10:42:34.376Z,6.10
2022-08-05T10:43:23.913Z,3.80
2022-08-05T10:44:23.909Z,5.90
2022-08-05T10:45:40.044Z,6.20
2022-08-05T10:46:24.264Z,7.10
2022-08-05T10:47:26.574Z,5.90
2022-08-05T10:48:29.904Z,5.20
2022-08-05T10:49:26.810Z,5.50
2022-08-05T10:50:36.155Z,6.00
2022-08-05T10:51:29.035Z,3.70
2022-08-05T10:52:24.067Z,5.20
2022-08-05T10:53:23.902Z,6.80
2022-08-05T10:54:29.881Z,7.30
2022-08-05T10:55:23.900Z,7.50
2022-08-05T10:56:25.892Z,6.00
2022-08-05T10:57:23.953Z,8.50
2022-08-05T10:58:23.891Z,8.30
2022-08-05T11:00:02.765Z,5.80
2022-08-05T11:00:23.908Z,5.60
2022-08-05T11:01:28.371Z,6.10
2022-08-05T11:02:38.070Z,4.10
2022-08-05T11:03:26.914Z,10.00
2022-08-05T11:04:26.367Z,4.30
2022-08-05T11:05:28.774Z,7.10
2022-08-05T11:06:31.010Z,3.50
2022-08-05T11:07:32.827Z,3.70
2022-08-05T11:08:37.047Z,8.00
2022-08-05T11:09:24.464Z,4.60
2022-08-05T11:10:27.414Z,6.50
2022-08-05T11:11:23.895Z,3.50
2022-08-05T11:12:24.155Z,5.10
2022-08-05T11:13:23.895Z,3.10
2022-08-05T11:14:42.843Z,8.30
2022-08-05T11:15:23.909Z,4.40
2022-08-05T11:16:33.959Z,3.10
2022-08-05T11:17:57.515Z,4.50
2022-08-05T11:18:23.897Z,4.50
2022-08-05T11:20:11.055Z,4.20
2022-08-05T11:20:23.889Z,7.40
2022-08-05T11:21:23.882Z,3.30
2022-08-05T11:22:23.886Z,5.70
2022-08-05T11:23:25.330Z,8.30
2022-08-05T11:24:30.059Z,3.40
2022-08-05T11:26:05.100Z,6.10
2022-08-05T11:26:29.223Z,4.40
2022-08-05T11:27:24.134Z,3.50
2022-08-05T11:28:23.887Z,9.20
2022-08-05T11:29:23.889Z,7.40
2022-08-05T11:30:23.886Z,3.90
2022-08-05T11:31:54.242Z,4.70
2022-08-05T11:32:23.889Z,4.40
2022-08-05T11:33:23.882Z,5.00
2022-08-05T11:34:26.235Z,3.10
2022-08-05T11:35:23.876Z,4.80
2022-08-05T11:36:34.035Z,3.90
2022-08-05T11:38:26.587Z,4.00
2022-08-05T11:38:30.973Z,3.00
2022-08-05T11:39:23.931Z,6.00
2022-08-05T11:40:23.881Z,4.30
2022-08-05T11:41:56.506Z,6.40
2022-08-05T11:42:23.873Z,4.50
2022-08-05T11:44:06.327Z,6.40
2022-08-05T11:44:52.991Z,11.70
2022-08-05T11:46:14.968Z,6.80
2022-08-05T11:46:32.718Z,4.60
2022-08-05T11:47:49.854Z,4.90
2022-08-05T11:48:23.881Z,10.10
2022-08-05T11:49:23.885Z,4.00
2022-08-05T11:50:25.237Z,5.90
2022-08-05T11:51:44.811Z,7.60
2022-08-05T11:52:23.886Z,3.00
2022-08-05T11:53:23.876Z,6.40
2022-08-05T11:54:23.878Z,3.50
2022-08-05T11:55:23.892Z,6.10
2022-08-05T11:56:40.792Z,3.30
2022-08-05T11:57:25.041Z,8.40
2022-08-05T11:58:23.869Z,3.30
2022-08-05T11:59:23.868Z,3.00
2022-08-05T12:00:23.870Z,3.70
2022-08-05T12:01:23.879Z,3.20
2022-08-05T12:02:31.275Z,5.90
2022-08-05T12:03:31.493Z,2.80
2022-08-05T12:04:23.873Z,3.40
2022-08-05T12:05:26.016Z,3.60
2022-08-05T12:06:23.876Z,6.00
2022-08-05T12:08:03.664Z,4.60
2022-08-05T12:08:23.862Z,2.20
2022-08-05T12:09:23.876Z,3.70
2022-08-05T12:10:24.939Z,3.30
2022-08-05T12:11:23.872Z,3.40
2022-08-05T12:12:23.879Z,2.40
2022-08-05T12:13:47.682Z,11.60
2022-08-05T12:14:24.218Z,2.30
2022-08-05T12:15:35.775Z,3.00
2022-08-05T12:16:25.539Z,3.50
2022-08-05T12:18:03.160Z,3.50
2022-08-05T12:18:24.206Z,4.10
2022-08-05T12:20:27.555Z,5.20
2022-08-05T12:20:33.124Z,4.10
2022-08-05T12:21:24.086Z,4.30
2022-08-05T12:22:23.850Z,2.60
2022-08-05T12:23:23.849Z,2.30
2022-08-05T12:24:24.582Z,5.20
2022-08-05T12:25:28.213Z,2.80
2022-08-05T12:26:24.032Z,3.10
2022-08-05T12:27:25.477Z,3.30
2022-08-05T12:28:23.848Z,2.80
2022-08-05T12:29:23.847Z,3.40
2022-08-05T12:30:23.839Z,3.10
2022-08-05T12:31:33.492Z,4.50
2022-08-05T12:32:23.844Z,3.00
2022-08-05T12:33:27.318Z,5.60
2022-08-05T12:34:25.798Z,4.20
2022-08-05T12:35:23.844Z,5.20
2022-08-05T12:36:23.874Z,5.10
2022-08-05T12:37:23.871Z,3.70
2022-08-05T12:38:23.832Z,5.80
2022-08-05T12:39:34.265Z,5.20
2022-08-05T12:40:26.674Z,2.80
2022-08-05T12:41:23.823Z,4.80
2022-08-05T12:42:25.158Z,2.80
2022-08-05T12:43:23.819Z,3.00
2022-08-05T12:44:33.880Z,2.50
2022-08-05T12:45:23.818Z,4.60
2022-08-05T12:46:29.102Z,3.00
2022-08-05T12:47:24.070Z,4.70
2022-08-05T12:48:32.679Z,3.00
2022-08-05T12:49:25.563Z,4.20
2022-08-05T12:50:23.813Z,3.80
2022-08-05T12:52:14.393Z,3.70
2022-08-05T12:52:28.330Z,4.90
2022-08-05T12:53:23.814Z,4.30
2022-08-05T12:54:23.815Z,4.60
2022-08-05T12:55:25.329Z,3.00
2022-08-05T12:56:34.275Z,2.80
2022-08-05T12:57:23.886Z,6.10
2022-08-05T12:58:48.635Z,4.10
2022-08-05T12:59:27.442Z,4.60
2022-08-05T13:02:01.961Z,3.30
2022-08-05T13:02:02.135Z,7.10
2022-08-05T13:02:30.348Z,4.50
2022-08-05T13:03:23.869Z,4.40
2022-08-05T13:04:23.802Z,4.90
2022-08-05T13:05:23.791Z,3.70
2022-08-05T13:06:23.797Z,3.70
2022-08-05T13:07:56.020Z,4.60
2022-08-05T13:08:23.796Z,3.90
2022-08-05T13:09:27.960Z,4.30
2022-08-05T13:10:23.787Z,3.10
2022-08-05T13:11:35.085Z,3.50